sensor_id;sensor_type;location;lat;lon;timestamp;temperature;humidity
31677;DHT22;18385;51.572;6.578;2023-12-07T00:00:59;4.60;73.90
31677;DHT22;18385;51.572;6.578;2023-12-07T00:03:25;4.60;73.90
31677;DHT22;18385;51.572;6.578;2023-12-07T00:05:50;4.60;73.80
31677;DHT22;18385;51.572;6.578;2023-12-07T00:08:16;4.60;73.90
31677;DHT22;18385;51.572;6.578;2023-12-07T00:10:41;4.70;74.00
31677;DHT22;18385;51.572;6.578;2023-12-07T00:13:07;4.80;74.00
31677;DHT22;18385;51.572;6.578;2023-12-07T00:15:33;4.90;73.90
31677;DHT22;18385;51.572;6.578;2023-12-07T00:17:59;5.00;73.80
31677;DHT22;18385;51.572;6.578;2023-12-07T00:20:26;5.00;73.60
31677;DHT22;18385;51.572;6.578;2023-12-07T00:22:51;5.00;73.50
31677;DHT22;18385;51.572;6.578;2023-12-07T00:25:17;5.00;73.50
31677;DHT22;18385;51.572;6.578;2023-12-07T00:27:43;4.90;73.50
31677;DHT22;18385;51.572;6.578;2023-12-07T00:30:09;4.90;73.50
31677;DHT22;18385;51.572;6.578;2023-12-07T00:32:34;4.80;73.40
31677;DHT22;18385;51.572;6.578;2023-12-07T00:35:00;4.70;73.50
31677;DHT22;18385;51.572;6.578;2023-12-07T00:37:26;4.70;73.50
31677;DHT22;18385;51.572;6.578;2023-12-07T00:39:52;4.60;73.50
31677;DHT22;18385;51.572;6.578;2023-12-07T00:42:18;4.60;73.60
31677;DHT22;18385;51.572;6.578;2023-12-07T00:44:43;4.50;73.70
31677;DHT22;18385;51.572;6.578;2023-12-07T00:47:09;4.40;73.80
31677;DHT22;18385;51.572;6.578;2023-12-07T00:49:38;4.40;73.90
31677;DHT22;18385;51.572;6.578;2023-12-07T00:52:08;4.40;74.00
31677;DHT22;18385;51.572;6.578;2023-12-07T00:54:34;4.40;73.90
31677;DHT22;18385;51.572;6.578;2023-12-07T00:56:59;4.40;73.90
31677;DHT22;18385;51.572;6.578;2023-12-07T00:59:25;4.40;73.80
31677;DHT22;18385;51.572;6.578;2023-12-07T01:01:51;4.40;73.70
31677;DHT22;18385;51.572;6.578;2023-12-07T01:04:16;4.30;73.60
31677;DHT22;18385;51.572;6.578;2023-12-07T01:06:43;4.30;73.80
31677;DHT22;18385;51.572;6.578;2023-12-07T01:09:09;4.20;73.70
31677;DHT22;18385;51.572;6.578;2023-12-07T01:11:39;4.10;73.80
31677;DHT22;18385;51.572;6.578;2023-12-07T01:14:05;4.10;73.70
31677;DHT22;18385;51.572;6.578;2023-12-07T01:16:31;4.00;73.70
31677;DHT22;18385;51.572;6.578;2023-12-07T01:18:57;4.00;73.70
31677;DHT22;18385;51.572;6.578;2023-12-07T01:21:23;3.90;73.70
31677;DHT22;18385;51.572;6.578;2023-12-07T01:23:49;3.80;73.70
31677;DHT22;18385;51.572;6.578;2023-12-07T01:26:14;3.80;73.70
31677;DHT22;18385;51.572;6.578;2023-12-07T01:28:40;3.70;73.70
31677;DHT22;18385;51.572;6.578;2023-12-07T01:31:06;3.70;73.80
31677;DHT22;18385;51.572;6.578;2023-12-07T01:33:31;3.60;73.80
31677;DHT22;18385;51.572;6.578;2023-12-07T01:35:57;3.60;73.80
31677;DHT22;18385;51.572;6.578;2023-12-07T01:38:23;3.60;73.80
31677;DHT22;18385;51.572;6.578;2023-12-07T01:40:48;3.60;73.70
31677;DHT22;18385;51.572;6.578;2023-12-07T01:43:14;3.50;73.60
31677;DHT22;18385;51.572;6.578;2023-12-07T01:45:40;3.50;73.70
31677;DHT22;18385;51.572;6.578;2023-12-07T01:48:06;3.50;73.70
31677;DHT22;18385;51.572;6.578;2023-12-07T01:50:32;3.40;73.60
31677;DHT22;18385;51.572;6.578;2023-12-07T01:53:01;3.40;73.60
31677;DHT22;18385;51.572;6.578;2023-12-07T01:55:28;3.40;73.80
31677;DHT22;18385;51.572;6.578;2023-12-07T01:57:55;3.40;74.00
31677;DHT22;18385;51.572;6.578;2023-12-07T02:00:20;3.50;74.10
31677;DHT22;18385;51.572;6.578;2023-12-07T02:02:47;3.50;74.10
31677;DHT22;18385;51.572;6.578;2023-12-07T02:05:13;3.60;74.10
31677;DHT22;18385;51.572;6.578;2023-12-07T02:07:41;3.70;74.90
31677;DHT22;18385;51.572;6.578;2023-12-07T02:10:07;3.80;75.00
31677;DHT22;18385;51.572;6.578;2023-12-07T02:12:33;3.90;74.60
31677;DHT22;18385;51.572;6.578;2023-12-07T02:15:01;3.90;74.40
31677;DHT22;18385;51.572;6.578;2023-12-07T02:17:35;3.90;74.20
31677;DHT22;18385;51.572;6.578;2023-12-07T02:20:12;4.00;74.40
31677;DHT22;18385;51.572;6.578;2023-12-07T02:22:47;4.00;74.20
31677;DHT22;18385;51.572;6.578;2023-12-07T02:25:15;3.90;74.00
31677;DHT22;18385;51.572;6.578;2023-12-07T02:27:44;3.90;74.10
31677;DHT22;18385;51.572;6.578;2023-12-07T02:30:13;3.90;74.10
31677;DHT22;18385;51.572;6.578;2023-12-07T02:32:40;3.90;74.00
31677;DHT22;18385;51.572;6.578;2023-12-07T02:35:07;3.80;74.10
31677;DHT22;18385;51.572;6.578;2023-12-07T02:37:37;3.80;74.20
31677;DHT22;18385;51.572;6.578;2023-12-07T02:40:07;3.90;74.40
31677;DHT22;18385;51.572;6.578;2023-12-07T02:42:40;3.90;74.60
31677;DHT22;18385;51.572;6.578;2023-12-07T02:45:07;4.10;74.40
31677;DHT22;18385;51.572;6.578;2023-12-07T02:47:33;4.10;74.10
31677;DHT22;18385;51.572;6.578;2023-12-07T02:49:59;4.20;74.20
31677;DHT22;18385;51.572;6.578;2023-12-07T02:52:25;4.30;74.00
31677;DHT22;18385;51.572;6.578;2023-12-07T02:54:51;4.40;74.00
31677;DHT22;18385;51.572;6.578;2023-12-07T02:57:16;4.40;73.90
31677;DHT22;18385;51.572;6.578;2023-12-07T02:59:42;4.40;73.80
31677;DHT22;18385;51.572;6.578;2023-12-07T03:02:08;4.50;73.80
31677;DHT22;18385;51.572;6.578;2023-12-07T03:04:34;4.50;73.70
31677;DHT22;18385;51.572;6.578;2023-12-07T03:06:59;4.50;73.70
31677;DHT22;18385;51.572;6.578;2023-12-07T03:09:25;4.50;73.60
31677;DHT22;18385;51.572;6.578;2023-12-07T03:11:51;4.60;73.60
31677;DHT22;18385;51.572;6.578;2023-12-07T03:14:16;4.60;73.60
31677;DHT22;18385;51.572;6.578;2023-12-07T03:16:42;4.60;73.60
31677;DHT22;18385;51.572;6.578;2023-12-07T03:19:08;4.60;73.60
31677;DHT22;18385;51.572;6.578;2023-12-07T03:21:33;4.60;73.60
31677;DHT22;18385;51.572;6.578;2023-12-07T03:23:59;4.60;73.60
31677;DHT22;18385;51.572;6.578;2023-12-07T03:26:24;4.60;73.60
31677;DHT22;18385;51.572;6.578;2023-12-07T03:28:50;4.60;73.60
31677;DHT22;18385;51.572;6.578;2023-12-07T03:31:16;4.60;73.80
31677;DHT22;18385;51.572;6.578;2023-12-07T03:33:42;4.70;73.70
31677;DHT22;18385;51.572;6.578;2023-12-07T03:36:11;4.70;73.60
31677;DHT22;18385;51.572;6.578;2023-12-07T03:38:37;4.80;73.60
31677;DHT22;18385;51.572;6.578;2023-12-07T03:41:03;4.80;73.50
31677;DHT22;18385;51.572;6.578;2023-12-07T03:43:29;4.90;73.50
31677;DHT22;18385;51.572;6.578;2023-12-07T03:45:54;4.90;73.40
31677;DHT22;18385;51.572;6.578;2023-12-07T03:48:20;5.00;73.30
31677;DHT22;18385;51.572;6.578;2023-12-07T03:50:46;5.00;73.30
31677;DHT22;18385;51.572;6.578;2023-12-07T03:53:12;5.00;73.30
31677;DHT22;18385;51.572;6.578;2023-12-07T03:55:38;5.10;73.30
31677;DHT22;18385;51.572;6.578;2023-12-07T03:58:07;5.10;73.20
31677;DHT22;18385;51.572;6.578;2023-12-07T04:00:32;5.10;73.20
31677;DHT22;18385;51.572;6.578;2023-12-07T04:02:58;5.20;73.20
31677;DHT22;18385;51.572;6.578;2023-12-07T04:05:24;5.20;73.20
31677;DHT22;18385;51.572;6.578;2023-12-07T04:07:50;5.30;73.10
31677;DHT22;18385;51.572;6.578;2023-12-07T04:10:15;5.30;72.90
31677;DHT22;18385;51.572;6.578;2023-12-07T04:12:41;5.40;72.90
31677;DHT22;18385;51.572;6.578;2023-12-07T04:15:07;5.40;72.90
31677;DHT22;18385;51.572;6.578;2023-12-07T04:17:33;5.40;73.00
31677;DHT22;18385;51.572;6.578;2023-12-07T04:19:59;5.40;73.00
31677;DHT22;18385;51.572;6.578;2023-12-07T04:22:24;5.40;73.00
31677;DHT22;18385;51.572;6.578;2023-12-07T04:24:51;5.40;73.00
31677;DHT22;18385;51.572;6.578;2023-12-07T04:27:16;5.40;72.90
31677;DHT22;18385;51.572;6.578;2023-12-07T04:29:42;5.50;73.00
31677;DHT22;18385;51.572;6.578;2023-12-07T04:32:08;5.40;72.90
31677;DHT22;18385;51.572;6.578;2023-12-07T04:34:34;5.40;72.90
31677;DHT22;18385;51.572;6.578;2023-12-07T04:36:59;5.40;72.90
31677;DHT22;18385;51.572;6.578;2023-12-07T04:39:25;5.30;72.90
31677;DHT22;18385;51.572;6.578;2023-12-07T04:41:51;5.30;73.00
31677;DHT22;18385;51.572;6.578;2023-12-07T04:44:16;5.20;73.10
31677;DHT22;18385;51.572;6.578;2023-12-07T04:46:42;5.20;73.20
31677;DHT22;18385;51.572;6.578;2023-12-07T04:49:08;5.20;73.30
31677;DHT22;18385;51.572;6.578;2023-12-07T04:51:34;5.30;73.40
31677;DHT22;18385;51.572;6.578;2023-12-07T04:54:00;5.30;73.20
31677;DHT22;18385;51.572;6.578;2023-12-07T04:56:25;5.30;73.30
31677;DHT22;18385;51.572;6.578;2023-12-07T04:58:51;5.30;73.40
31677;DHT22;18385;51.572;6.578;2023-12-07T05:01:17;5.30;73.40
31677;DHT22;18385;51.572;6.578;2023-12-07T05:03:44;5.30;73.50
31677;DHT22;18385;51.572;6.578;2023-12-07T05:06:10;5.40;73.50
31677;DHT22;18385;51.572;6.578;2023-12-07T05:08:38;5.30;73.50
31677;DHT22;18385;51.572;6.578;2023-12-07T05:11:04;5.40;73.50
31677;DHT22;18385;51.572;6.578;2023-12-07T05:13:30;5.40;73.60
31677;DHT22;18385;51.572;6.578;2023-12-07T05:15:56;5.40;73.50
31677;DHT22;18385;51.572;6.578;2023-12-07T05:18:22;5.40;73.40
31677;DHT22;18385;51.572;6.578;2023-12-07T05:20:48;5.40;73.40
31677;DHT22;18385;51.572;6.578;2023-12-07T05:23:14;5.50;73.50
31677;DHT22;18385;51.572;6.578;2023-12-07T05:25:39;5.50;73.50
31677;DHT22;18385;51.572;6.578;2023-12-07T05:28:05;5.50;73.50
31677;DHT22;18385;51.572;6.578;2023-12-07T05:30:30;5.50;73.50
31677;DHT22;18385;51.572;6.578;2023-12-07T05:32:56;5.50;73.40
31677;DHT22;18385;51.572;6.578;2023-12-07T05:35:22;5.50;73.40
31677;DHT22;18385;51.572;6.578;2023-12-07T05:37:48;5.50;73.30
31677;DHT22;18385;51.572;6.578;2023-12-07T05:40:16;5.50;73.30
31677;DHT22;18385;51.572;6.578;2023-12-07T05:42:41;5.50;73.50
31677;DHT22;18385;51.572;6.578;2023-12-07T05:45:07;5.60;73.40
31677;DHT22;18385;51.572;6.578;2023-12-07T05:47:35;5.50;73.20
31677;DHT22;18385;51.572;6.578;2023-12-07T05:50:02;5.40;73.30
31677;DHT22;18385;51.572;6.578;2023-12-07T05:52:29;5.40;73.30
31677;DHT22;18385;51.572;6.578;2023-12-07T05:54:54;5.30;73.40
31677;DHT22;18385;51.572;6.578;2023-12-07T05:57:20;5.20;73.60
31677;DHT22;18385;51.572;6.578;2023-12-07T05:59:46;5.30;73.70
31677;DHT22;18385;51.572;6.578;2023-12-07T06:02:12;5.20;73.70
31677;DHT22;18385;51.572;6.578;2023-12-07T06:04:37;5.20;73.60
31677;DHT22;18385;51.572;6.578;2023-12-07T06:07:03;5.20;73.60
31677;DHT22;18385;51.572;6.578;2023-12-07T06:09:29;5.20;73.70
31677;DHT22;18385;51.572;6.578;2023-12-07T06:11:55;5.20;73.90
31677;DHT22;18385;51.572;6.578;2023-12-07T06:14:21;5.30;73.80
31677;DHT22;18385;51.572;6.578;2023-12-07T06:16:48;5.40;73.70
31677;DHT22;18385;51.572;6.578;2023-12-07T06:19:14;5.40;73.60
31677;DHT22;18385;51.572;6.578;2023-12-07T06:21:40;5.40;73.50
31677;DHT22;18385;51.572;6.578;2023-12-07T06:24:05;5.40;73.40
31677;DHT22;18385;51.572;6.578;2023-12-07T06:26:32;5.30;73.30
31677;DHT22;18385;51.572;6.578;2023-12-07T06:28:58;5.30;73.40
31677;DHT22;18385;51.572;6.578;2023-12-07T06:31:24;5.30;73.60
31677;DHT22;18385;51.572;6.578;2023-12-07T06:33:50;5.30;73.70
31677;DHT22;18385;51.572;6.578;2023-12-07T06:36:20;5.30;73.60
31677;DHT22;18385;51.572;6.578;2023-12-07T06:38:46;5.30;73.60
31677;DHT22;18385;51.572;6.578;2023-12-07T06:41:12;5.30;73.70
31677;DHT22;18385;51.572;6.578;2023-12-07T06:43:38;5.30;73.60
31677;DHT22;18385;51.572;6.578;2023-12-07T06:46:03;5.30;73.60
31677;DHT22;18385;51.572;6.578;2023-12-07T06:48:29;5.30;73.70
31677;DHT22;18385;51.572;6.578;2023-12-07T06:50:55;5.30;73.70
31677;DHT22;18385;51.572;6.578;2023-12-07T06:53:20;5.30;73.80
31677;DHT22;18385;51.572;6.578;2023-12-07T06:55:46;5.20;73.70
31677;DHT22;18385;51.572;6.578;2023-12-07T06:58:12;5.30;73.80
31677;DHT22;18385;51.572;6.578;2023-12-07T07:00:38;5.20;73.60
31677;DHT22;18385;51.572;6.578;2023-12-07T07:03:06;5.20;73.50
31677;DHT22;18385;51.572;6.578;2023-12-07T07:05:32;5.10;73.60
31677;DHT22;18385;51.572;6.578;2023-12-07T07:07:57;5.10;73.70
31677;DHT22;18385;51.572;6.578;2023-12-07T07:10:24;5.10;73.80
31677;DHT22;18385;51.572;6.578;2023-12-07T07:12:50;5.10;73.80
31677;DHT22;18385;51.572;6.578;2023-12-07T07:15:15;5.10;73.90
31677;DHT22;18385;51.572;6.578;2023-12-07T07:17:41;5.10;74.00
31677;DHT22;18385;51.572;6.578;2023-12-07T07:20:07;5.10;74.00
31677;DHT22;18385;51.572;6.578;2023-12-07T07:22:33;5.20;74.10
31677;DHT22;18385;51.572;6.578;2023-12-07T07:25:00;5.30;74.00
31677;DHT22;18385;51.572;6.578;2023-12-07T07:27:25;5.30;73.90
31677;DHT22;18385;51.572;6.578;2023-12-07T07:29:51;5.30;73.90
31677;DHT22;18385;51.572;6.578;2023-12-07T07:32:17;5.30;73.80
31677;DHT22;18385;51.572;6.578;2023-12-07T07:34:43;5.30;73.80
31677;DHT22;18385;51.572;6.578;2023-12-07T07:37:09;5.30;73.80
31677;DHT22;18385;51.572;6.578;2023-12-07T07:39:34;5.40;73.80
31677;DHT22;18385;51.572;6.578;2023-12-07T07:42:00;5.40;73.90
31677;DHT22;18385;51.572;6.578;2023-12-07T07:44:26;5.50;73.80
31677;DHT22;18385;51.572;6.578;2023-12-07T07:46:52;5.50;73.70
31677;DHT22;18385;51.572;6.578;2023-12-07T07:49:17;5.50;73.70
31677;DHT22;18385;51.572;6.578;2023-12-07T07:51:43;5.50;73.60
31677;DHT22;18385;51.572;6.578;2023-12-07T07:54:09;5.40;73.60
31677;DHT22;18385;51.572;6.578;2023-12-07T07:56:34;5.50;73.80
31677;DHT22;18385;51.572;6.578;2023-12-07T07:59:01;5.50;73.80
31677;DHT22;18385;51.572;6.578;2023-12-07T08:01:26;5.40;73.70
31677;DHT22;18385;51.572;6.578;2023-12-07T08:03:52;5.50;73.90
31677;DHT22;18385;51.572;6.578;2023-12-07T08:06:18;5.50;73.80
31677;DHT22;18385;51.572;6.578;2023-12-07T08:08:44;5.50;73.80
31677;DHT22;18385;51.572;6.578;2023-12-07T08:11:09;5.50;73.70
31677;DHT22;18385;51.572;6.578;2023-12-07T08:13:35;5.50;73.70
31677;DHT22;18385;51.572;6.578;2023-12-07T08:16:01;5.60;73.80
31677;DHT22;18385;51.572;6.578;2023-12-07T08:18:27;5.50;73.60
31677;DHT22;18385;51.572;6.578;2023-12-07T08:20:53;5.60;73.80
31677;DHT22;18385;51.572;6.578;2023-12-07T08:23:18;5.60;73.70
31677;DHT22;18385;51.572;6.578;2023-12-07T08:25:44;5.50;73.60
31677;DHT22;18385;51.572;6.578;2023-12-07T08:28:10;5.60;73.90
31677;DHT22;18385;51.572;6.578;2023-12-07T08:30:36;5.60;73.60
31677;DHT22;18385;51.572;6.578;2023-12-07T08:33:02;5.60;73.80
31677;DHT22;18385;51.572;6.578;2023-12-07T08:35:28;5.60;73.80
31677;DHT22;18385;51.572;6.578;2023-12-07T08:37:56;5.60;73.70
31677;DHT22;18385;51.572;6.578;2023-12-07T08:40:22;5.70;73.80
31677;DHT22;18385;51.572;6.578;2023-12-07T08:42:47;5.70;73.70
31677;DHT22;18385;51.572;6.578;2023-12-07T08:45:14;5.80;73.90
31677;DHT22;18385;51.572;6.578;2023-12-07T08:47:40;5.80;73.70
31677;DHT22;18385;51.572;6.578;2023-12-07T08:50:06;5.90;73.60
31677;DHT22;18385;51.572;6.578;2023-12-07T08:52:35;5.80;73.40
31677;DHT22;18385;51.572;6.578;2023-12-07T08:55:01;5.80;73.60
31677;DHT22;18385;51.572;6.578;2023-12-07T08:57:26;5.90;73.80
31677;DHT22;18385;51.572;6.578;2023-12-07T08:59:52;6.00;73.80
31677;DHT22;18385;51.572;6.578;2023-12-07T09:02:18;6.10;73.70
31677;DHT22;18385;51.572;6.578;2023-12-07T09:04:44;6.20;73.50
31677;DHT22;18385;51.572;6.578;2023-12-07T09:07:09;6.10;73.50
31677;DHT22;18385;51.572;6.578;2023-12-07T09:09:36;6.20;73.70
31677;DHT22;18385;51.572;6.578;2023-12-07T09:12:02;6.30;73.90
31677;DHT22;18385;51.572;6.578;2023-12-07T09:14:28;6.40;73.70
31677;DHT22;18385;51.572;6.578;2023-12-07T09:16:53;6.60;73.50
31677;DHT22;18385;51.572;6.578;2023-12-07T09:19:20;6.70;73.50
31677;DHT22;18385;51.572;6.578;2023-12-07T09:21:45;6.90;73.40
31677;DHT22;18385;51.572;6.578;2023-12-07T09:24:11;6.90;73.10
31677;DHT22;18385;51.572;6.578;2023-12-07T09:26:36;7.00;73.00
31677;DHT22;18385;51.572;6.578;2023-12-07T09:29:02;6.90;72.60
31677;DHT22;18385;51.572;6.578;2023-12-07T09:31:28;6.80;72.60
31677;DHT22;18385;51.572;6.578;2023-12-07T09:33:54;6.80;72.80
31677;DHT22;18385;51.572;6.578;2023-12-07T09:36:20;6.80;73.00
31677;DHT22;18385;51.572;6.578;2023-12-07T09:38:47;6.90;73.10
31677;DHT22;18385;51.572;6.578;2023-12-07T09:41:13;6.90;73.10
31677;DHT22;18385;51.572;6.578;2023-12-07T09:43:39;6.90;73.00
31677;DHT22;18385;51.572;6.578;2023-12-07T09:46:05;7.00;73.20
31677;DHT22;18385;51.572;6.578;2023-12-07T09:48:32;7.10;73.00
31677;DHT22;18385;51.572;6.578;2023-12-07T09:50:59;7.20;73.00
31677;DHT22;18385;51.572;6.578;2023-12-07T09:53:27;7.20;72.80
31677;DHT22;18385;51.572;6.578;2023-12-07T09:55:54;7.20;72.60
31677;DHT22;18385;51.572;6.578;2023-12-07T09:58:20;7.20;72.80
31677;DHT22;18385;51.572;6.578;2023-12-07T10:00:47;7.20;72.70
31677;DHT22;18385;51.572;6.578;2023-12-07T10:03:23;7.20;72.60
31677;DHT22;18385;51.572;6.578;2023-12-07T10:05:59;7.20;73.40
31677;DHT22;18385;51.572;6.578;2023-12-07T10:08:32;7.20;72.40
31677;DHT22;18385;51.572;6.578;2023-12-07T10:11:08;7.20;72.60
31677;DHT22;18385;51.572;6.578;2023-12-07T10:13:34;7.10;72.50
31677;DHT22;18385;51.572;6.578;2023-12-07T10:16:13;7.10;72.70
31677;DHT22;18385;51.572;6.578;2023-12-07T10:18:40;7.10;72.90
31677;DHT22;18385;51.572;6.578;2023-12-07T10:21:07;7.10;73.00
31677;DHT22;18385;51.572;6.578;2023-12-07T10:23:33;7.20;72.90
31677;DHT22;18385;51.572;6.578;2023-12-07T10:25:59;7.30;73.10
31677;DHT22;18385;51.572;6.578;2023-12-07T10:28:28;7.30;73.00
31677;DHT22;18385;51.572;6.578;2023-12-07T10:30:54;7.40;73.00
31677;DHT22;18385;51.572;6.578;2023-12-07T10:33:20;7.40;72.60
31677;DHT22;18385;51.572;6.578;2023-12-07T10:35:46;7.40;72.70
31677;DHT22;18385;51.572;6.578;2023-12-07T10:38:14;7.50;72.80
31677;DHT22;18385;51.572;6.578;2023-12-07T10:40:40;7.50;72.70
31677;DHT22;18385;51.572;6.578;2023-12-07T10:43:07;7.50;72.70
31677;DHT22;18385;51.572;6.578;2023-12-07T10:45:33;7.50;72.60
31677;DHT22;18385;51.572;6.578;2023-12-07T10:48:07;7.50;72.60
31677;DHT22;18385;51.572;6.578;2023-12-07T10:50:40;7.50;72.80
31677;DHT22;18385;51.572;6.578;2023-12-07T10:53:10;7.50;72.90
31677;DHT22;18385;51.572;6.578;2023-12-07T10:55:42;7.60;72.90
31677;DHT22;18385;51.572;6.578;2023-12-07T10:58:11;7.60;72.70
31677;DHT22;18385;51.572;6.578;2023-12-07T11:00:42;7.60;72.90
31677;DHT22;18385;51.572;6.578;2023-12-07T11:03:16;7.70;73.00
31677;DHT22;18385;51.572;6.578;2023-12-07T11:05:47;7.80;73.40
31677;DHT22;18385;51.572;6.578;2023-12-07T11:08:29;7.80;72.60
31677;DHT22;18385;51.572;6.578;2023-12-07T11:14:06;7.70;72.80
31677;DHT22;18385;51.572;6.578;2023-12-07T11:16:34;7.70;72.90
31677;DHT22;18385;51.572;6.578;2023-12-07T11:19:01;7.70;72.90
31677;DHT22;18385;51.572;6.578;2023-12-07T11:21:27;7.70;73.00
31677;DHT22;18385;51.572;6.578;2023-12-07T11:23:59;7.70;73.00
31677;DHT22;18385;51.572;6.578;2023-12-07T11:26:26;7.70;73.00
31677;DHT22;18385;51.572;6.578;2023-12-07T11:28:53;7.70;73.20
31677;DHT22;18385;51.572;6.578;2023-12-07T11:31:20;7.80;73.10
31677;DHT22;18385;51.572;6.578;2023-12-07T11:33:46;7.80;73.10
31677;DHT22;18385;51.572;6.578;2023-12-07T11:36:13;7.80;73.10
31677;DHT22;18385;51.572;6.578;2023-12-07T11:41:34;7.80;73.20
31677;DHT22;18385;51.572;6.578;2023-12-07T11:44:00;7.80;73.20
31677;DHT22;18385;51.572;6.578;2023-12-07T11:46:26;7.70;73.20
31677;DHT22;18385;51.572;6.578;2023-12-07T11:48:52;7.70;73.20
31677;DHT22;18385;51.572;6.578;2023-12-07T11:51:19;7.60;74.00
31677;DHT22;18385;51.572;6.578;2023-12-07T11:53:44;7.60;73.40
31677;DHT22;18385;51.572;6.578;2023-12-07T11:56:11;7.60;73.50
31677;DHT22;18385;51.572;6.578;2023-12-07T11:58:38;7.60;73.60
31677;DHT22;18385;51.572;6.578;2023-12-07T12:01:04;7.60;74.40
31677;DHT22;18385;51.572;6.578;2023-12-07T12:03:31;7.60;73.60
31677;DHT22;18385;51.572;6.578;2023-12-07T12:05:58;7.70;73.60
31677;DHT22;18385;51.572;6.578;2023-12-07T12:08:24;7.70;73.60
31677;DHT22;18385;51.572;6.578;2023-12-07T12:10:50;7.80;73.60
31677;DHT22;18385;51.572;6.578;2023-12-07T12:13:18;7.80;73.60
31677;DHT22;18385;51.572;6.578;2023-12-07T12:15:45;7.80;73.60
31677;DHT22;18385;51.572;6.578;2023-12-07T12:18:12;7.90;73.50
31677;DHT22;18385;51.572;6.578;2023-12-07T12:20:39;8.00;73.60
31677;DHT22;18385;51.572;6.578;2023-12-07T12:23:05;8.00;73.40
31677;DHT22;18385;51.572;6.578;2023-12-07T12:25:33;8.10;73.50
31677;DHT22;18385;51.572;6.578;2023-12-07T12:28:02;8.10;73.40
31677;DHT22;18385;51.572;6.578;2023-12-07T12:30:29;8.10;73.30
31677;DHT22;18385;51.572;6.578;2023-12-07T12:32:55;8.10;73.30
31677;DHT22;18385;51.572;6.578;2023-12-07T12:35:21;8.20;73.40
31677;DHT22;18385;51.572;6.578;2023-12-07T12:37:49;8.20;73.40
31677;DHT22;18385;51.572;6.578;2023-12-07T12:40:17;8.30;73.60
31677;DHT22;18385;51.572;6.578;2023-12-07T12:42:47;8.30;73.30
31677;DHT22;18385;51.572;6.578;2023-12-07T12:45:14;8.40;73.40
31677;DHT22;18385;51.572;6.578;2023-12-07T12:47:41;8.40;73.10
31677;DHT22;18385;51.572;6.578;2023-12-07T12:50:09;8.40;72.90
31677;DHT22;18385;51.572;6.578;2023-12-07T12:52:35;8.30;73.00
31677;DHT22;18385;51.572;6.578;2023-12-07T12:55:01;8.30;73.10
31677;DHT22;18385;51.572;6.578;2023-12-07T12:57:28;8.20;73.10
31677;DHT22;18385;51.572;6.578;2023-12-07T12:59:54;8.10;73.00
31677;DHT22;18385;51.572;6.578;2023-12-07T13:02:20;8.10;74.00
31677;DHT22;18385;51.572;6.578;2023-12-07T13:04:46;8.10;73.30
31677;DHT22;18385;51.572;6.578;2023-12-07T13:07:13;8.10;73.40
31677;DHT22;18385;51.572;6.578;2023-12-07T13:09:41;8.20;73.40
31677;DHT22;18385;51.572;6.578;2023-12-07T13:12:09;8.20;73.40
31677;DHT22;18385;51.572;6.578;2023-12-07T13:14:35;8.20;73.30
31677;DHT22;18385;51.572;6.578;2023-12-07T13:17:01;8.30;73.30
31677;DHT22;18385;51.572;6.578;2023-12-07T13:19:27;8.40;73.20
31677;DHT22;18385;51.572;6.578;2023-12-07T13:21:53;8.40;73.10
31677;DHT22;18385;51.572;6.578;2023-12-07T13:24:18;8.40;72.80
31677;DHT22;18385;51.572;6.578;2023-12-07T13:26:44;8.40;72.90
31677;DHT22;18385;51.572;6.578;2023-12-07T13:29:10;8.40;73.00
31677;DHT22;18385;51.572;6.578;2023-12-07T13:31:36;8.40;73.20
31677;DHT22;18385;51.572;6.578;2023-12-07T13:34:01;8.50;73.30
31677;DHT22;18385;51.572;6.578;2023-12-07T13:36:27;8.60;73.30
31677;DHT22;18385;51.572;6.578;2023-12-07T13:38:57;8.60;73.40
31677;DHT22;18385;51.572;6.578;2023-12-07T13:41:23;8.70;73.50
31677;DHT22;18385;51.572;6.578;2023-12-07T13:43:49;8.90;73.50
31677;DHT22;18385;51.572;6.578;2023-12-07T13:46:17;9.00;73.20
31677;DHT22;18385;51.572;6.578;2023-12-07T13:48:42;9.00;73.00
31677;DHT22;18385;51.572;6.578;2023-12-07T13:51:08;9.20;73.20
31677;DHT22;18385;51.572;6.578;2023-12-07T13:53:34;9.20;73.10
31677;DHT22;18385;51.572;6.578;2023-12-07T13:56:00;9.20;72.80
31677;DHT22;18385;51.572;6.578;2023-12-07T13:58:26;9.20;72.60
31677;DHT22;18385;51.572;6.578;2023-12-07T14:00:52;9.10;72.50
31677;DHT22;18385;51.572;6.578;2023-12-07T14:03:17;9.10;72.60
31677;DHT22;18385;51.572;6.578;2023-12-07T14:05:43;9.10;72.60
31677;DHT22;18385;51.572;6.578;2023-12-07T14:08:08;9.10;72.50
31677;DHT22;18385;51.572;6.578;2023-12-07T14:10:34;9.00;73.00
31677;DHT22;18385;51.572;6.578;2023-12-07T14:13:01;8.90;72.20
31677;DHT22;18385;51.572;6.578;2023-12-07T14:15:26;8.80;72.00
31677;DHT22;18385;51.572;6.578;2023-12-07T14:17:52;8.70;71.90
31677;DHT22;18385;51.572;6.578;2023-12-07T14:20:18;8.50;71.90
31677;DHT22;18385;51.572;6.578;2023-12-07T14:22:46;8.40;71.90
31677;DHT22;18385;51.572;6.578;2023-12-07T14:25:12;8.20;72.00
31677;DHT22;18385;51.572;6.578;2023-12-07T14:27:37;8.10;72.10
31677;DHT22;18385;51.572;6.578;2023-12-07T14:30:03;8.00;72.10
31677;DHT22;18385;51.572;6.578;2023-12-07T14:32:29;8.00;72.10
31677;DHT22;18385;51.572;6.578;2023-12-07T14:34:55;7.80;72.10
31677;DHT22;18385;51.572;6.578;2023-12-07T14:37:21;7.80;72.20
31677;DHT22;18385;51.572;6.578;2023-12-07T14:39:47;7.60;72.20
31677;DHT22;18385;51.572;6.578;2023-12-07T14:42:13;7.60;72.30
31677;DHT22;18385;51.572;6.578;2023-12-07T14:44:39;7.50;72.30
31677;DHT22;18385;51.572;6.578;2023-12-07T14:47:05;7.40;72.40
31677;DHT22;18385;51.572;6.578;2023-12-07T14:49:31;7.30;72.50
31677;DHT22;18385;51.572;6.578;2023-12-07T14:51:56;7.20;72.40
31677;DHT22;18385;51.572;6.578;2023-12-07T14:54:24;7.10;72.50
31677;DHT22;18385;51.572;6.578;2023-12-07T14:56:50;7.10;72.60
31677;DHT22;18385;51.572;6.578;2023-12-07T14:59:15;7.00;72.70
31677;DHT22;18385;51.572;6.578;2023-12-07T15:01:42;7.00;72.80
31677;DHT22;18385;51.572;6.578;2023-12-07T15:04:08;6.90;72.80
31677;DHT22;18385;51.572;6.578;2023-12-07T15:06:34;6.80;72.70
31677;DHT22;18385;51.572;6.578;2023-12-07T15:09:01;6.80;72.80
31677;DHT22;18385;51.572;6.578;2023-12-07T15:11:31;6.70;72.80
31677;DHT22;18385;51.572;6.578;2023-12-07T15:13:56;6.70;72.70
31677;DHT22;18385;51.572;6.578;2023-12-07T15:16:22;6.60;72.70
31677;DHT22;18385;51.572;6.578;2023-12-07T15:18:48;6.50;72.70
31677;DHT22;18385;51.572;6.578;2023-12-07T15:21:14;6.40;72.70
31677;DHT22;18385;51.572;6.578;2023-12-07T15:23:43;6.40;72.80
31677;DHT22;18385;51.572;6.578;2023-12-07T15:26:10;6.30;72.80
31677;DHT22;18385;51.572;6.578;2023-12-07T15:28:36;6.30;72.70
31677;DHT22;18385;51.572;6.578;2023-12-07T15:31:03;6.20;72.80
31677;DHT22;18385;51.572;6.578;2023-12-07T15:33:30;6.20;72.90
31677;DHT22;18385;51.572;6.578;2023-12-07T15:35:56;6.20;72.90
31677;DHT22;18385;51.572;6.578;2023-12-07T15:38:22;6.10;72.90
31677;DHT22;18385;51.572;6.578;2023-12-07T15:40:48;6.10;72.90
31677;DHT22;18385;51.572;6.578;2023-12-07T15:43:14;6.10;73.00
31677;DHT22;18385;51.572;6.578;2023-12-07T15:45:39;6.10;73.10